sensor_id;sensor_type;location;lat;lon;timestamp;pressure;altitude;pressure_sealevel;temperature;humidity
44979;BME280;67464;52.438;-1.904;2023-04-06T00:02:13;99865.69;;;8.78;100.00
44979;BME280;67464;52.438;-1.904;2023-04-06T00:04:38;99877.23;;;7.79;100.00
44979;BME280;67464;52.438;-1.904;2023-04-06T00:07:04;99875.06;;;7.83;100.00
44979;BME280;67464;52.438;-1.904;2023-04-06T00:09:29;99873.32;;;7.04;100.00
44979;BME280;67464;52.438;-1.904;2023-04-06T00:11:54;99866.30;;;7.30;100.00
44979;BME280;67464;52.438;-1.904;2023-04-06T00:14:19;99863.55;;;6.76;100.00
44979;BME280;67464;52.438;-1.904;2023-04-06T00:16:45;99856.74;;;6.91;100.00
44979;BME280;67464;52.438;-1.904;2023-04-06T00:19:11;99852.42;;;7.32;100.00
44979;BME280;67464;52.438;-1.904;2023-04-06T00:21:36;99854.22;;;7.35;100.00
44979;BME280;67464;52.438;-1.904;2023-04-06T00:24:02;99851.68;;;8.24;100.00
44979;BME280;67464;52.438;-1.904;2023-04-06T00:26:28;99852.18;;;7.05;100.00
44979;BME280;67464;52.438;-1.904;2023-04-06T00:28:53;99849.75;;;7.22;100.00
44979;BME280;67464;52.438;-1.904;2023-04-06T00:31:18;99836.81;;;8.52;100.00
44979;BME280;67464;52.438;-1.904;2023-04-06T00:33:44;99840.16;;;7.19;100.00
44979;BME280;67464;52.438;-1.904;2023-04-06T00:36:09;99840.02;;;7.07;100.00
44979;BME280;67464;52.438;-1.904;2023-04-06T00:38:35;99839.36;;;7.55;100.00
44979;BME280;67464;52.438;-1.904;2023-04-06T00:41:00;99835.40;;;7.40;100.00
44979;BME280;67464;52.438;-1.904;2023-04-06T00:43:26;99829.54;;;8.25;100.00
44979;BME280;67464;52.438;-1.904;2023-04-06T00:45:51;99827.51;;;7.99;100.00
44979;BME280;67464;52.438;-1.904;2023-04-06T00:48:17;99816.66;;;8.23;100.00
44979;BME280;67464;52.438;-1.904;2023-04-06T00:50:42;99820.45;;;7.79;100.00
44979;BME280;67464;52.438;-1.904;2023-04-06T00:53:07;99818.98;;;7.89;100.00
44979;BME280;67464;52.438;-1.904;2023-04-06T00:55:32;99819.36;;;6.80;100.00
44979;BME280;67464;52.438;-1.904;2023-04-06T00:57:59;99817.98;;;6.94;100.00
44979;BME280;67464;52.438;-1.904;2023-04-06T01:00:23;99810.56;;;8.67;100.00
44979;BME280;67464;52.438;-1.904;2023-04-06T01:02:48;99810.42;;;7.84;100.00
44979;BME280;67464;52.438;-1.904;2023-04-06T01:05:14;99810.84;;;7.54;100.00
44979;BME280;67464;52.438;-1.904;2023-04-06T01:07:39;99808.05;;;6.60;100.00
44979;BME280;67464;52.438;-1.904;2023-04-06T01:10:05;99810.46;;;6.82;100.00
44979;BME280;67464;52.438;-1.904;2023-04-06T01:12:30;99807.12;;;6.41;100.00
44979;BME280;67464;52.438;-1.904;2023-04-06T01:14:55;99802.42;;;6.89;100.00
44979;BME280;67464;52.438;-1.904;2023-04-06T01:17:20;99800.98;;;6.27;100.00
44979;BME280;67464;52.438;-1.904;2023-04-06T01:19:45;99797.79;;;6.53;100.00
44979;BME280;67464;52.438;-1.904;2023-04-06T01:22:15;99802.19;;;6.53;100.00
44979;BME280;67464;52.438;-1.904;2023-04-06T01:24:37;99799.18;;;7.03;100.00
44979;BME280;67464;52.438;-1.904;2023-04-06T01:27:02;99795.16;;;6.49;100.00
44979;BME280;67464;52.438;-1.904;2023-04-06T01:29:27;99788.84;;;7.63;100.00
44979;BME280;67464;52.438;-1.904;2023-04-06T01:31:52;99783.59;;;6.72;100.00
44979;BME280;67464;52.438;-1.904;2023-04-06T01:34:18;99784.39;;;7.13;100.00
44979;BME280;67464;52.438;-1.904;2023-04-06T01:36:44;99779.15;;;7.77;100.00
44979;BME280;67464;52.438;-1.904;2023-04-06T01:39:09;99776.32;;;7.75;100.00
44979;BME280;67464;52.438;-1.904;2023-04-06T01:41:35;99771.15;;;8.25;100.00
44979;BME280;67464;52.438;-1.904;2023-04-06T01:44:01;99768.75;;;7.17;100.00
44979;BME280;67464;52.438;-1.904;2023-04-06T01:46:26;99762.51;;;7.20;100.00
44979;BME280;67464;52.438;-1.904;2023-04-06T01:48:51;99753.00;;;7.37;100.00
44979;BME280;67464;52.438;-1.904;2023-04-06T01:51:17;99750.61;;;7.13;100.00
44979;BME280;67464;52.438;-1.904;2023-04-06T01:53:43;99748.45;;;6.75;100.00
44979;BME280;67464;52.438;-1.904;2023-04-06T01:56:09;99746.00;;;7.88;100.00
44979;BME280;67464;52.438;-1.904;2023-04-06T01:58:34;99741.91;;;7.34;100.00
44979;BME280;67464;52.438;-1.904;2023-04-06T02:01:01;99738.88;;;8.46;100.00
44979;BME280;67464;52.438;-1.904;2023-04-06T02:03:25;99742.12;;;7.52;100.00
44979;BME280;67464;52.438;-1.904;2023-04-06T02:05:51;99744.18;;;7.75;100.00
44979;BME280;67464;52.438;-1.904;2023-04-06T02:08:17;99736.25;;;7.04;100.00
44979;BME280;67464;52.438;-1.904;2023-04-06T02:10:42;99731.43;;;6.99;100.00
44979;BME280;67464;52.438;-1.904;2023-04-06T02:13:08;99728.28;;;8.29;100.00
44979;BME280;67464;52.438;-1.904;2023-04-06T02:15:33;99730.03;;;8.42;100.00
44979;BME280;67464;52.438;-1.904;2023-04-06T02:17:59;99735.89;;;7.33;100.00
44979;BME280;67464;52.438;-1.904;2023-04-06T02:20:24;99728.03;;;8.28;100.00
44979;BME280;67464;52.438;-1.904;2023-04-06T02:22:49;99722.91;;;7.69;100.00
44979;BME280;67464;52.438;-1.904;2023-04-06T02:25:15;99721.89;;;7.91;100.00
44979;BME280;67464;52.438;-1.904;2023-04-06T02:27:40;99722.03;;;7.35;100.00
44979;BME280;67464;52.438;-1.904;2023-04-06T02:30:06;99718.07;;;8.01;100.00
44979;BME280;67464;52.438;-1.904;2023-04-06T02:32:32;99714.86;;;8.05;100.00
44979;BME280;67464;52.438;-1.904;2023-04-06T02:34:56;99713.42;;;7.77;100.00
44979;BME280;67464;52.438;-1.904;2023-04-06T02:37:22;99713.38;;;8.19;100.00
44979;BME280;67464;52.438;-1.904;2023-04-06T02:39:48;99717.57;;;8.96;100.00
44979;BME280;67464;52.438;-1.904;2023-04-06T02:42:14;99716.82;;;8.05;100.00
44979;BME280;67464;52.438;-1.904;2023-04-06T02:44:38;99712.62;;;8.69;100.00
44979;BME280;67464;52.438;-1.904;2023-04-06T02:47:04;99714.39;;;7.89;100.00
44979;BME280;67464;52.438;-1.904;2023-04-06T02:49:29;99710.12;;;7.98;100.00
44979;BME280;67464;52.438;-1.904;2023-04-06T02:51:55;99708.73;;;7.92;100.00
44979;BME280;67464;52.438;-1.904;2023-04-06T02:54:20;99702.44;;;7.69;100.00
44979;BME280;67464;52.438;-1.904;2023-04-06T02:56:46;99702.05;;;8.07;100.00
44979;BME280;67464;52.438;-1.904;2023-04-06T02:59:11;99695.22;;;8.61;100.00
44979;BME280;67464;52.438;-1.904;2023-04-06T03:01:37;99696.14;;;8.39;100.00
44979;BME280;67464;52.438;-1.904;2023-04-06T03:04:02;99688.93;;;7.97;100.00
44979;BME280;67464;52.438;-1.904;2023-04-06T03:06:27;99686.95;;;7.26;100.00
44979;BME280;67464;52.438;-1.904;2023-04-06T03:08:53;99682.99;;;8.00;100.00
44979;BME280;67464;52.438;-1.904;2023-04-06T03:11:18;99682.15;;;7.66;100.00
44979;BME280;67464;52.438;-1.904;2023-04-06T03:13:45;99677.23;;;7.86;100.00
44979;BME280;67464;52.438;-1.904;2023-04-06T03:16:09;99674.20;;;7.90;100.00
44979;BME280;67464;52.438;-1.904;2023-04-06T03:18:34;99675.96;;;6.87;100.00
44979;BME280;67464;52.438;-1.904;2023-04-06T03:21:00;99667.57;;;7.57;100.00
44979;BME280;67464;52.438;-1.904;2023-04-06T03:23:25;99657.78;;;7.98;100.00
44979;BME280;67464;52.438;-1.904;2023-04-06T03:25:50;99649.38;;;8.95;100.00
44979;BME280;67464;52.438;-1.904;2023-04-06T03:28:16;99647.87;;;9.32;100.00
44979;BME280;67464;52.438;-1.904;2023-04-06T03:30:42;99652.38;;;8.40;100.00
44979;BME280;67464;52.438;-1.904;2023-04-06T03:33:07;99642.07;;;9.02;100.00
44979;BME280;67464;52.438;-1.904;2023-04-06T03:35:32;99634.33;;;9.35;100.00
44979;BME280;67464;52.438;-1.904;2023-04-06T03:37:58;99642.33;;;8.17;100.00
44979;BME280;67464;52.438;-1.904;2023-04-06T03:40:23;99636.23;;;9.03;100.00
44979;BME280;67464;52.438;-1.904;2023-04-06T03:42:48;99637.99;;;8.18;100.00
44979;BME280;67464;52.438;-1.904;2023-04-06T03:45:15;99637.35;;;8.39;100.00
44979;BME280;67464;52.438;-1.904;2023-04-06T03:47:40;99629.03;;;8.67;100.00
44979;BME280;67464;52.438;-1.904;2023-04-06T03:50:06;99630.82;;;8.59;100.00
44979;BME280;67464;52.438;-1.904;2023-04-06T03:52:31;99626.60;;;8.29;100.00
44979;BME280;67464;52.438;-1.904;2023-04-06T03:54:56;99623.05;;;8.11;100.00
44979;BME280;67464;52.438;-1.904;2023-04-06T03:57:21;99623.66;;;8.18;100.00
44979;BME280;67464;52.438;-1.904;2023-04-06T03:59:47;99616.43;;;7.74;100.00
44979;BME280;67464;52.438;-1.904;2023-04-06T04:02:12;99617.07;;;7.08;100.00
44979;BME280;67464;52.438;-1.904;2023-04-06T04:04:38;99619.82;;;7.96;100.00
44979;BME280;67464;52.438;-1.904;2023-04-06T04:07:03;99616.08;;;8.08;100.00
44979;BME280;67464;52.438;-1.904;2023-04-06T04:09:28;99607.82;;;8.30;100.00
44979;BME280;67464;52.438;-1.904;2023-04-06T04:11:54;99604.84;;;8.74;100.00
44979;BME280;67464;52.438;-1.904;2023-04-06T04:14:19;99598.13;;;8.76;100.00
44979;BME280;67464;52.438;-1.904;2023-04-06T04:16:44;99590.24;;;8.31;100.00
44979;BME280;67464;52.438;-1.904;2023-04-06T04:19:10;99583.31;;;8.72;100.00
44979;BME280;67464;52.438;-1.904;2023-04-06T04:21:42;99587.81;;;7.69;100.00
44979;BME280;67464;52.438;-1.904;2023-04-06T04:24:01;99582.64;;;9.75;100.00
44979;BME280;67464;52.438;-1.904;2023-04-06T04:26:27;99585.99;;;10.21;97.92
44979;BME280;67464;52.438;-1.904;2023-04-06T04:28:52;99597.75;;;11.19;81.77
44979;BME280;67464;52.438;-1.904;2023-04-06T04:31:18;99605.59;;;10.66;88.04
44979;BME280;67464;52.438;-1.904;2023-04-06T04:33:43;99610.77;;;10.01;91.44
44979;BME280;67464;52.438;-1.904;2023-04-06T04:36:09;99607.12;;;10.75;84.31
44979;BME280;67464;52.438;-1.904;2023-04-06T04:38:34;99599.90;;;11.86;77.54
44979;BME280;67464;52.438;-1.904;2023-04-06T04:40:59;99609.49;;;10.96;85.57
44979;BME280;67464;52.438;-1.904;2023-04-06T04:43:24;99618.85;;;10.32;88.77
44979;BME280;67464;52.438;-1.904;2023-04-06T04:45:50;99616.04;;;9.80;100.00
44979;BME280;67464;52.438;-1.904;2023-04-06T04:48:15;99617.00;;;9.09;100.00
44979;BME280;67464;52.438;-1.904;2023-04-06T04:50:41;99618.80;;;8.84;100.00
44979;BME280;67464;52.438;-1.904;2023-04-06T04:53:06;99623.32;;;9.10;100.00
44979;BME280;67464;52.438;-1.904;2023-04-06T04:55:31;99619.13;;;8.28;100.00
44979;BME280;67464;52.438;-1.904;2023-04-06T04:57:56;99615.02;;;7.86;100.00
44979;BME280;67464;52.438;-1.904;2023-04-06T05:00:22;99616.03;;;7.84;100.00
44979;BME280;67464;52.438;-1.904;2023-04-06T05:02:47;99620.12;;;6.83;100.00
44979;BME280;67464;52.438;-1.904;2023-04-06T05:05:14;99622.59;;;7.63;100.00
44979;BME280;67464;52.438;-1.904;2023-04-06T05:07:38;99621.28;;;6.70;100.00
44979;BME280;67464;52.438;-1.904;2023-04-06T05:10:04;99614.50;;;7.30;100.00
44979;BME280;67464;52.438;-1.904;2023-04-06T05:12:29;99613.56;;;7.09;100.00
44979;BME280;67464;52.438;-1.904;2023-04-06T05:14:54;99617.84;;;7.36;100.00
44979;BME280;67464;52.438;-1.904;2023-04-06T05:17:20;99626.92;;;6.89;100.00
44979;BME280;67464;52.438;-1.904;2023-04-06T05:19:45;99619.90;;;7.41;100.00
44979;BME280;67464;52.438;-1.904;2023-04-06T05:22:11;99621.99;;;7.81;100.00
44979;BME280;67464;52.438;-1.904;2023-04-06T05:24:37;99618.27;;;8.28;100.00
44979;BME280;67464;52.438;-1.904;2023-04-06T05:27:03;99614.52;;;8.30;100.00
44979;BME280;67464;52.438;-1.904;2023-04-06T05:29:29;99607.69;;;9.44;100.00
44979;BME280;67464;52.438;-1.904;2023-04-06T05:31:53;99608.12;;;9.59;100.00
44979;BME280;67464;52.438;-1.904;2023-04-06T05:34:19;99607.65;;;9.57;100.00
44979;BME280;67464;52.438;-1.904;2023-04-06T05:36:44;99610.83;;;8.90;100.00
44979;BME280;67464;52.438;-1.904;2023-04-06T05:39:10;99611.06;;;8.59;100.00
44979;BME280;67464;52.438;-1.904;2023-04-06T05:41:35;99615.06;;;9.09;100.00
44979;BME280;67464;52.438;-1.904;2023-04-06T05:44:01;99616.99;;;8.98;100.00
44979;BME280;67464;52.438;-1.904;2023-04-06T05:46:26;99612.12;;;9.89;100.00
44979;BME280;67464;52.438;-1.904;2023-04-06T05:48:52;99611.49;;;9.00;100.00
44979;BME280;67464;52.438;-1.904;2023-04-06T05:51:17;99610.13;;;8.92;100.00
44979;BME280;67464;52.438;-1.904;2023-04-06T05:53:43;99615.68;;;8.99;100.00
44979;BME280;67464;52.438;-1.904;2023-04-06T05:56:09;99615.61;;;9.56;100.00
44979;BME280;67464;52.438;-1.904;2023-04-06T05:58:34;99620.12;;;9.04;100.00
44979;BME280;67464;52.438;-1.904;2023-04-06T06:01:00;99622.38;;;8.71;100.00
44979;BME280;67464;52.438;-1.904;2023-04-06T06:03:25;99623.87;;;9.00;100.00
44979;BME280;67464;52.438;-1.904;2023-04-06T06:05:51;99631.46;;;8.53;100.00
44979;BME280;67464;52.438;-1.904;2023-04-06T06:08:16;99632.16;;;8.14;100.00
44979;BME280;67464;52.438;-1.904;2023-04-06T06:10:42;99633.20;;;8.94;100.00
44979;BME280;67464;52.438;-1.904;2023-04-06T06:13:08;99640.42;;;8.16;100.00
44979;BME280;67464;52.438;-1.904;2023-04-06T06:15:33;99640.36;;;9.31;100.00
44979;BME280;67464;52.438;-1.904;2023-04-06T06:17:58;99638.45;;;8.70;100.00
44979;BME280;67464;52.438;-1.904;2023-04-06T06:20:24;99639.90;;;9.98;100.00
44979;BME280;67464;52.438;-1.904;2023-04-06T06:22:48;99642.96;;;9.92;100.00
44979;BME280;67464;52.438;-1.904;2023-04-06T06:25:14;99650.37;;;8.81;100.00
44979;BME280;67464;52.438;-1.904;2023-04-06T06:27:39;99650.68;;;9.13;100.00
44979;BME280;67464;52.438;-1.904;2023-04-06T06:30:05;99651.79;;;9.77;100.00
44979;BME280;67464;52.438;-1.904;2023-04-06T06:32:30;99655.21;;;10.08;100.00
44979;BME280;67464;52.438;-1.904;2023-04-06T06:34:56;99654.25;;;9.99;100.00
44979;BME280;67464;52.438;-1.904;2023-04-06T06:37:21;99657.35;;;9.12;100.00
44979;BME280;67464;52.438;-1.904;2023-04-06T06:39:47;99665.24;;;9.07;100.00
44979;BME280;67464;52.438;-1.904;2023-04-06T06:42:13;99667.51;;;8.25;100.00
44979;BME280;67464;52.438;-1.904;2023-04-06T06:44:38;99664.77;;;8.57;100.00
44979;BME280;67464;52.438;-1.904;2023-04-06T06:47:04;99663.27;;;8.82;100.00
44979;BME280;67464;52.438;-1.904;2023-04-06T06:49:30;99661.75;;;8.85;100.00
44979;BME280;67464;52.438;-1.904;2023-04-06T06:51:55;99668.35;;;8.57;100.00
44979;BME280;67464;52.438;-1.904;2023-04-06T06:54:21;99668.91;;;8.19;100.00
44979;BME280;67464;52.438;-1.904;2023-04-06T06:56:47;99674.41;;;8.13;100.00
44979;BME280;67464;52.438;-1.904;2023-04-06T06:59:12;99676.70;;;7.72;100.00
44979;BME280;67464;52.438;-1.904;2023-04-06T07:01:38;99677.65;;;8.25;100.00
44979;BME280;67464;52.438;-1.904;2023-04-06T07:04:04;99685.54;;;8.46;100.00
44979;BME280;67464;52.438;-1.904;2023-04-06T07:06:29;99695.67;;;8.71;100.00
44979;BME280;67464;52.438;-1.904;2023-04-06T07:08:55;99703.93;;;8.60;100.00
44979;BME280;67464;52.438;-1.904;2023-04-06T07:11:21;99704.71;;;8.67;100.00
44979;BME280;67464;52.438;-1.904;2023-04-06T07:13:47;99706.44;;;8.77;100.00
44979;BME280;67464;52.438;-1.904;2023-04-06T07:16:12;99715.63;;;8.03;100.00
44979;BME280;67464;52.438;-1.904;2023-04-06T07:18:38;99717.31;;;8.93;100.00
44979;BME280;67464;52.438;-1.904;2023-04-06T07:21:04;99727.57;;;8.81;100.00
44979;BME280;67464;52.438;-1.904;2023-04-06T07:23:29;99728.48;;;8.46;100.00
44979;BME280;67464;52.438;-1.904;2023-04-06T07:25:55;99731.25;;;8.67;100.00
44979;BME280;67464;52.438;-1.904;2023-04-06T07:28:21;99731.01;;;8.68;100.00
44979;BME280;67464;52.438;-1.904;2023-04-06T07:30:47;99724.69;;;9.91;100.00
44979;BME280;67464;52.438;-1.904;2023-04-06T07:33:12;99720.05;;;9.14;100.00
44979;BME280;67464;52.438;-1.904;2023-04-06T07:35:38;99716.24;;;9.57;100.00
44979;BME280;67464;52.438;-1.904;2023-04-06T07:38:03;99718.77;;;10.28;100.00
44979;BME280;67464;52.438;-1.904;2023-04-06T07:40:29;99729.41;;;9.48;100.00
44979;BME280;67464;52.438;-1.904;2023-04-06T07:42:55;99733.66;;;9.24;100.00
44979;BME280;67464;52.438;-1.904;2023-04-06T07:45:20;99731.87;;;9.53;100.00
44979;BME280;67464;52.438;-1.904;2023-04-06T07:47:46;99733.78;;;9.19;100.00
44979;BME280;67464;52.438;-1.904;2023-04-06T07:50:12;99728.24;;;9.98;100.00
44979;BME280;67464;52.438;-1.904;2023-04-06T07:52:38;99726.98;;;10.49;100.00
44979;BME280;67464;52.438;-1.904;2023-04-06T07:55:03;99726.05;;;10.24;100.00
44979;BME280;67464;52.438;-1.904;2023-04-06T07:57:28;99728.65;;;11.04;100.00
44979;BME280;67464;52.438;-1.904;2023-04-06T07:59:54;99730.03;;;11.34;100.00
44979;BME280;67464;52.438;-1.904;2023-04-06T08:02:20;99718.17;;;12.15;99.21
44979;BME280;67464;52.438;-1.904;2023-04-06T08:04:46;99715.12;;;11.53;98.17
44979;BME280;67464;52.438;-1.904;2023-04-06T08:07:11;99715.57;;;11.68;100.00
44979;BME280;67464;52.438;-1.904;2023-04-06T08:09:37;99721.66;;;11.30;100.00
44979;BME280;67464;52.438;-1.904;2023-04-06T08:12:03;99722.10;;;11.31;100.00
44979;BME280;67464;52.438;-1.904;2023-04-06T08:14:28;99713.60;;;11.98;97.47
44979;BME280;67464;52.438;-1.904;2023-04-06T08:16:54;99717.58;;;11.34;100.00
44979;BME280;67464;52.438;-1.904;2023-04-06T08:19:19;99712.81;;;12.03;90.17
44979;BME280;67464;52.438;-1.904;2023-04-06T08:21:45;99720.81;;;12.11;91.72
44979;BME280;67464;52.438;-1.904;2023-04-06T08:24:11;99716.05;;;12.20;84.21
44979;BME280;67464;52.438;-1.904;2023-04-06T08:26:36;99716.23;;;14.38;75.14
44979;BME280;67464;52.438;-1.904;2023-04-06T08:29:01;99724.57;;;15.25;67.61
44979;BME280;67464;52.438;-1.904;2023-04-06T08:31:27;99733.48;;;15.01;63.84
44979;BME280;67464;52.438;-1.904;2023-04-06T08:33:53;99734.56;;;13.83;66.05
44979;BME280;67464;52.438;-1.904;2023-04-06T08:36:18;99740.14;;;13.40;70.99
44979;BME280;67464;52.438;-1.904;2023-04-06T08:38:44;99747.17;;;12.49;78.96
44979;BME280;67464;52.438;-1.904;2023-04-06T08:41:10;99754.51;;;11.13;84.88
44979;BME280;67464;52.438;-1.904;2023-04-06T08:43:41;99758.89;;;11.59;89.08
44979;BME280;67464;52.438;-1.904;2023-04-06T08:46:01;99758.89;;;11.60;87.49
44979;BME280;67464;52.438;-1.904;2023-04-06T08:48:26;99766.32;;;11.74;83.69
44979;BME280;67464;52.438;-1.904;2023-04-06T08:50:52;99766.70;;;11.42;83.43
44979;BME280;67464;52.438;-1.904;2023-04-06T08:53:17;99766.98;;;11.24;86.40
44979;BME280;67464;52.438;-1.904;2023-04-06T08:55:43;99772.42;;;11.91;82.54
44979;BME280;67464;52.438;-1.904;2023-04-06T08:58:08;99773.59;;;11.92;82.93
44979;BME280;67464;52.438;-1.904;2023-04-06T09:00:37;99772.10;;;12.05;78.92
44979;BME280;67464;52.438;-1.904;2023-04-06T09:02:59;99777.91;;;11.85;79.65
44979;BME280;67464;52.438;-1.904;2023-04-06T09:05:25;99777.05;;;12.27;78.20
44979;BME280;67464;52.438;-1.904;2023-04-06T09:07:51;99775.31;;;12.54;75.69
44979;BME280;67464;52.438;-1.904;2023-04-06T09:10:16;99772.14;;;12.43;71.75
44979;BME280;67464;52.438;-1.904;2023-04-06T09:12:42;99776.50;;;13.37;68.22
44979;BME280;67464;52.438;-1.904;2023-04-06T09:15:18;99773.79;;;15.68;61.27
44979;BME280;67464;52.438;-1.904;2023-04-06T09:17:33;99776.44;;;16.34;55.07
44979;BME280;67464;52.438;-1.904;2023-04-06T09:19:59;99776.13;;;16.09;53.72
44979;BME280;67464;52.438;-1.904;2023-04-06T09:22:24;99774.52;;;18.03;48.58
44979;BME280;67464;52.438;-1.904;2023-04-06T09:24:51;99772.94;;;20.48;44.24
44979;BME280;67464;52.438;-1.904;2023-04-06T09:27:15;99779.50;;;18.77;44.46
44979;BME280;67464;52.438;-1.904;2023-04-06T09:29:41;99777.06;;;17.48;47.24
44979;BME280;67464;52.438;-1.904;2023-04-06T09:32:07;99782.54;;;18.16;47.36
44979;BME280;67464;52.438;-1.904;2023-04-06T09:34:32;99778.13;;;18.86;44.02
44979;BME280;67464;52.438;-1.904;2023-04-06T09:36:57;99778.86;;;16.59;44.85
44979;BME280;67464;52.438;-1.904;2023-04-06T09:39:23;99786.33;;;16.12;48.82
44979;BME280;67464;52.438;-1.904;2023-04-06T09:41:50;99790.59;;;15.98;49.53
44979;BME280;67464;52.438;-1.904;2023-04-06T09:44:13;99785.49;;;16.74;48.88
44979;BME280;67464;52.438;-1.904;2023-04-06T09:46:40;99787.75;;;17.71;46.63
44979;BME280;67464;52.438;-1.904;2023-04-06T09:49:05;99785.44;;;18.72;42.15
44979;BME280;67464;52.438;-1.904;2023-04-06T09:51:31;99789.80;;;18.53;41.05
44979;BME280;67464;52.438;-1.904;2023-04-06T09:53:56;99788.07;;;18.92;40.35
44979;BME280;67464;52.438;-1.904;2023-04-06T09:56:24;99796.38;;;19.49;39.05
44979;BME280;67464;52.438;-1.904;2023-04-06T09:58:50;99792.94;;;19.88;38.05
44979;BME280;67464;52.438;-1.904;2023-04-06T10:01:15;99788.84;;;20.58;37.22
44979;BME280;67464;52.438;-1.904;2023-04-06T10:03:45;99786.73;;;19.19;38.09
44979;BME280;67464;52.438;-1.904;2023-04-06T10:06:05;99785.88;;;18.77;39.15
44979;BME280;67464;52.438;-1.904;2023-04-06T10:08:28;99779.99;;;18.27;39.43
44979;BME280;67464;52.438;-1.904;2023-04-06T10:10:54;99783.62;;;18.52;39.06
44979;BME280;67464;52.438;-1.904;2023-04-06T10:13:19;99785.87;;;18.50;40.79
44979;BME280;67464;52.438;-1.904;2023-04-06T10:15:44;99791.36;;;17.50;39.81
44979;BME280;67464;52.438;-1.904;2023-04-06T10:18:10;99791.60;;;17.55;42.08
44979;BME280;67464;52.438;-1.904;2023-04-06T10:20:39;99788.71;;;17.08;41.25
44979;BME280;67464;52.438;-1.904;2023-04-06T10:23:06;99803.65;;;16.23;42.40
44979;BME280;67464;52.438;-1.904;2023-04-06T10:25:27;99803.82;;;15.29;43.78
44979;BME280;67464;52.438;-1.904;2023-04-06T10:27:59;99813.51;;;15.37;40.90
44979;BME280;67464;52.438;-1.904;2023-04-06T10:30:17;99817.39;;;16.60;40.74
44979;BME280;67464;52.438;-1.904;2023-04-06T10:32:42;99810.68;;;16.66;40.00
44979;BME280;67464;52.438;-1.904;2023-04-06T10:35:09;99811.92;;;16.84;41.80
44979;BME280;67464;52.438;-1.904;2023-04-06T10:37:47;99811.71;;;16.62;43.24
44979;BME280;67464;52.438;-1.904;2023-04-06T10:39:59;99812.58;;;16.26;41.13
44979;BME280;67464;52.438;-1.904;2023-04-06T10:42:24;99808.47;;;17.00;40.36
44979;BME280;67464;52.438;-1.904;2023-04-06T10:44:50;99808.04;;;15.96;39.52
44979;BME280;67464;52.438;-1.904;2023-04-06T10:47:16;99811.06;;;15.53;41.08
44979;BME280;67464;52.438;-1.904;2023-04-06T10:49:41;99815.49;;;15.07;41.11
44979;BME280;67464;52.438;-1.904;2023-04-06T10:52:06;99817.19;;;14.85;42.32
44979;BME280;67464;52.438;-1.904;2023-04-06T10:54:31;99824.13;;;14.35;43.88
44979;BME280;67464;52.438;-1.904;2023-04-06T10:56:57;99822.53;;;14.44;43.04
44979;BME280;67464;52.438;-1.904;2023-04-06T10:59:23;99822.55;;;14.64;43.98
44979;BME280;67464;52.438;-1.904;2023-04-06T11:01:48;99819.26;;;14.85;45.19
44979;BME280;67464;52.438;-1.904;2023-04-06T11:04:16;99816.34;;;16.96;40.95
44979;BME280;67464;52.438;-1.904;2023-04-06T11:06:39;99795.79;;;17.63;38.67
44979;BME280;67464;52.438;-1.904;2023-04-06T11:09:04;99806.76;;;18.24;37.02
44979;BME280;67464;52.438;-1.904;2023-04-06T11:11:30;99801.81;;;18.54;35.43
44979;BME280;67464;52.438;-1.904;2023-04-06T11:13:56;99812.17;;;18.13;37.69
44979;BME280;67464;52.438;-1.904;2023-04-06T11:16:23;99810.89;;;17.67;38.77
44979;BME280;67464;52.438;-1.904;2023-04-06T11:18:49;99811.80;;;17.35;41.24
44979;BME280;67464;52.438;-1.904;2023-04-06T11:21:11;99817.79;;;16.66;43.11
44979;BME280;67464;52.438;-1.904;2023-04-06T11:23:37;99824.45;;;16.35;42.08
44979;BME280;67464;52.438;-1.904;2023-04-06T11:26:03;99824.25;;;15.09;51.99
44979;BME280;67464;52.438;-1.904;2023-04-06T11:28:28;99826.69;;;14.37;54.72
44979;BME280;67464;52.438;-1.904;2023-04-06T11:30:53;99831.81;;;13.64;56.86
44979;BME280;67464;52.438;-1.904;2023-04-06T11:33:21;99835.99;;;13.12;53.32
44979;BME280;67464;52.438;-1.904;2023-04-06T11:35:45;99829.01;;;13.12;48.74
44979;BME280;67464;52.438;-1.904;2023-04-06T11:38:10;99831.91;;;13.46;50.21
44979;BME280;67464;52.438;-1.904;2023-04-06T11:40:35;99831.30;;;13.02;49.42
44979;BME280;67464;52.438;-1.904;2023-04-06T11:43:04;99834.95;;;13.60;47.15
44979;BME280;67464;52.438;-1.904;2023-04-06T11:45:27;99835.72;;;13.17;48.31
44979;BME280;67464;52.438;-1.904;2023-04-06T11:47:57;99836.19;;;13.68;44.27
44979;BME280;67464;52.438;-1.904;2023-04-06T11:50:18;99828.36;;;14.86;43.80
44979;BME280;67464;52.438;-1.904;2023-04-06T11:52:43;99839.69;;;16.06;43.45
44979;BME280;67464;52.438;-1.904;2023-04-06T11:55:12;99830.68;;;17.73;40.01
44979;BME280;67464;52.438;-1.904;2023-04-06T11:57:34;99833.98;;;18.55;38.81
44979;BME280;67464;52.438;-1.904;2023-04-06T12:00:00;99833.47;;;18.87;39.62
44979;BME280;67464;52.438;-1.904;2023-04-06T12:02:25;99834.63;;;17.65;34.18
44979;BME280;67464;52.438;-1.904;2023-04-06T12:04:50;99839.08;;;16.17;36.60
44979;BME280;67464;52.438;-1.904;2023-04-06T12:07:16;99838.46;;;14.82;40.40
44979;BME280;67464;52.438;-1.904;2023-04-06T12:09:42;99840.12;;;15.44;41.82
44979;BME280;67464;52.438;-1.904;2023-04-06T12:12:07;99838.05;;;15.80;40.72
44979;BME280;67464;52.438;-1.904;2023-04-06T12:14:33;99836.40;;;15.33;42.49
44979;BME280;67464;52.438;-1.904;2023-04-06T12:16:58;99840.80;;;15.28;41.13
44979;BME280;67464;52.438;-1.904;2023-04-06T12:19:23;99850.61;;;15.36;42.91
44979;BME280;67464;52.438;-1.904;2023-04-06T12:21:49;99847.85;;;15.54;41.57
44979;BME280;67464;52.438;-1.904;2023-04-06T12:24:14;99842.49;;;17.68;37.40
44979;BME280;67464;52.438;-1.904;2023-04-06T12:26:40;99850.32;;;16.44;37.43
44979;BME280;67464;52.438;-1.904;2023-04-06T12:29:05;99849.61;;;16.69;40.53
44979;BME280;67464;52.438;-1.904;2023-04-06T12:31:30;99844.39;;;15.66;38.56
44979;BME280;67464;52.438;-1.904;2023-04-06T12:33:56;99855.03;;;15.65;40.60
44979;BME280;67464;52.438;-1.904;2023-04-06T12:36:21;99858.18;;;14.09;39.51
44979;BME280;67464;52.438;-1.904;2023-04-06T12:38:48;99852.31;;;14.79;39.99
44979;BME280;67464;52.438;-1.904;2023-04-06T12:41:13;99854.13;;;16.50;40.73